Time;durP1;ratioP1;P1;durP2;ratioP2;P2;SDS_P1;SDS_P2;PMS_P1;PMS_P2;Temp;Humidity;BMP_temperature;BMP_pressure;BME280_temperature;BME280_humidity;BME280_pressure;Samples;Min_cycle;Max_cycle;Signal;HPM_P1;HPM_P2
2023/05/08 04:04:39;;;;;;;3.30;2.85;;;;;;;10.25;84.18;100949.06;6581043;27;20080;-93
2023/05/08 04:07:49;;;;;;;3.42;2.83;;;;;;;10.32;84.90;100954.69;6580301;27;34546;-90
2023/05/08 04:11:22;;;;;;;3.37;2.80;;;;;;;10.41;83.92;100959.94;6579477;27;34025;-90
2023/05/08 04:14:29;;;;;;;3.12;2.83;;;;;;;10.48;83.60;100960.13;6580434;27;34438;-90
2023/05/08 04:17:39;;;;;;;4.45;3.22;;;;;;;10.42;82.94;100958.94;6580340;27;33882;-89
2023/05/08 04:20:47;;;;;;;3.03;2.67;;;;;;;10.57;81.97;100969.09;6560578;27;34416;-89
2023/05/08 04:23:52;;;;;;;2.53;2.33;;;;;;;10.56;81.18;100979.00;6579671;27;33935;-89
2023/05/08 04:26:56;;;;;;;2.85;2.42;;;;;;;10.52;78.22;100982.19;6543337;27;34647;-90
2023/05/08 04:30:00;;;;;;;2.92;2.62;;;;;;;10.67;78.95;100983.25;6573275;27;33617;-89
2023/05/08 04:33:05;;;;;;;3.00;2.70;;;;;;;10.77;77.80;100986.66;6562500;27;34140;-89
2023/05/08 04:36:11;;;;;;;2.60;2.40;;;;;;;10.75;75.14;100993.19;6581695;27;34233;-89
2023/05/08 04:39:15;;;;;;;2.30;2.10;;;;;;;10.71;73.60;100994.56;6579791;27;33500;-89
2023/05/08 04:42:18;;;;;;;3.50;2.25;;;;;;;10.79;74.24;101000.81;6580081;27;33652;-89
2023/05/08 04:45:22;;;;;;;2.70;2.47;;;;;;;10.80;74.06;101001.66;6547661;27;33460;-90
2023/05/08 04:48:26;;;;;;;2.03;1.90;;;;;;;10.80;73.26;101012.41;6584016;27;33581;-89
2023/05/08 04:51:30;;;;;;;3.03;2.00;;;;;;;10.65;74.00;101010.34;6565061;27;34411;-90
2023/05/08 04:54:34;;;;;;;2.42;2.22;;;;;;;10.77;73.54;101016.28;6567296;27;34024;-90
2023/05/08 04:57:37;;;;;;;3.03;2.45;;;;;;;10.83;73.88;101025.56;6556094;27;34287;-89
2023/05/08 05:00:40;;;;;;;2.90;2.50;;;;;;;10.98;73.41;101028.47;6588569;26;33944;-89
2023/05/08 05:03:43;;;;;;;2.20;2.00;;;;;;;10.93;73.56;101028.09;6586537;27;34151;-89
2023/05/08 05:06:46;;;;;;;3.30;2.30;;;;;;;10.70;73.13;101028.69;6597893;27;32420;-89
2023/05/08 05:09:49;;;;;;;2.40;2.20;;;;;;;10.79;73.54;101030.44;6617449;27;33595;-89
2023/05/08 05:12:52;;;;;;;3.03;2.25;;;;;;;11.00;73.52;101031.84;6588768;27;33895;-90
2023/05/08 05:15:58;;;;;;;3.72;2.28;;;;;;;11.07;73.54;101028.31;6569033;27;33416;-89
2023/05/08 05:19:01;;;;;;;2.08;1.98;;;;;;;11.22;72.96;101035.75;6569107;27;33654;-89
2023/05/08 05:22:06;;;;;;;2.67;2.00;;;;;;;11.08;70.03;101037.22;6606932;27;33887;-89
2023/05/08 05:25:11;;;;;;;2.10;1.83;;;;;;;10.97;71.11;101035.69;6571067;27;35325;-93
2023/05/08 05:28:15;;;;;;;2.55;2.30;;;;;;;11.21;69.80;101039.47;6586128;27;35265;-93
2023/05/08 05:31:18;;;;;;;2.35;1.92;;;;;;;11.29;69.07;101042.16;6550082;27;34325;-94
2023/05/08 05:34:22;;;;;;;2.37;2.17;;;;;;;11.34;69.77;101042.50;6570086;27;33800;-91
2023/05/08 05:37:25;;;;;;;2.05;1.90;;;;;;;11.40;69.37;101039.12;6586946;27;34902;-91
2023/05/08 05:40:29;;;;;;;2.37;2.17;;;;;;;11.52;67.04;101051.31;6568890;27;33671;-90
2023/05/08 05:43:32;;;;;;;2.08;1.87;;;;;;;11.45;67.70;101052.12;6568273;27;33791;-90
2023/05/08 05:46:35;;;;;;;2.53;1.83;;;;;;;11.51;67.90;101056.84;6569864;27;33976;-90
2023/05/08 05:49:41;;;;;;;2.20;1.77;;;;;;;11.53;66.99;101061.06;6606779;27;33513;-90
2023/05/08 05:52:45;;;;;;;3.15;2.10;;;;;;;11.47;66.33;101058.19;6606853;27;33506;-90
2023/05/08 05:55:47;;;;;;;1.98;1.77;;;;;;;11.44;65.46;101056.69;6605253;27;33569;-89
2023/05/08 05:58:50;;;;;;;1.75;1.65;;;;;;;11.51;65.29;101060.37;6606623;27;33920;-89
2023/05/08 06:01:53;;;;;;;2.67;1.80;;;;;;;11.62;64.81;101066.47;6606899;27;33365;-89
2023/05/08 06:04:57;;;;;;;4.45;1.87;;;;;;;11.76;64.17;101063.09;6606054;26;33784;-89
2023/05/08 06:07:59;;;;;;;1.87;1.67;;;;;;;11.75;64.45;101062.25;6585837;27;34759;-89
2023/05/08 06:11:03;;;;;;;1.87;1.77;;;;;;;11.96;64.19;101063.59;6590482;27;34882;-90
2023/05/08 06:14:06;;;;;;;2.33;1.80;;;;;;;11.83;63.32;101064.09;6591191;27;34502;-90
2023/05/08 06:17:10;;;;;;;3.75;1.75;;;;;;;11.48;63.62;101060.72;6573367;27;34467;-89
2023/05/08 06:20:13;;;;;;;1.90;1.80;;;;;;;11.69;64.02;101062.06;6589662;27;33725;-89
2023/05/08 06:23:16;;;;;;;3.95;1.77;;;;;;;11.91;63.02;101056.03;6608567;27;33598;-89
2023/05/08 06:26:18;;;;;;;1.98;1.77;;;;;;;12.09;63.05;101058.53;6605814;27;33545;-90
2023/05/08 06:29:27;;;;;;;1.70;1.60;;;;;;;12.23;61.98;101065.13;6606398;27;33923;-90
2023/05/08 06:32:30;;;;;;;1.70;1.60;;;;;;;12.51;61.20;101064.69;6569415;27;35852;-90
2023/05/08 06:35:33;;;;;;;5.03;1.60;;;;;;;12.32;62.32;101071.34;6606848;27;34532;-90
2023/05/08 06:38:35;;;;;;;1.58;1.48;;;;;;;12.49;61.32;101070.28;6587064;27;32896;-90
2023/05/08 06:41:39;;;;;;;1.77;1.60;;;;;;;12.46;61.01;101068.78;6587600;27;33426;-90
2023/05/08 06:44:42;;;;;;;2.17;1.42;;;;;;;12.53;61.04;101068.06;6606861;27;33994;-90
2023/05/08 06:47:47;;;;;;;1.65;1.55;;;;;;;12.88;59.95;101073.00;6606093;27;33660;-89
2023/05/08 06:50:50;;;;;;;1.87;1.62;;;;;;;12.96;59.68;101079.38;6568209;27;34561;-89
2023/05/08 06:53:53;;;;;;;1.87;1.67;;;;;;;12.85;60.33;101073.34;6606370;27;34975;-90
2023/05/08 06:56:56;;;;;;;1.60;1.50;;;;;;;13.08;60.12;101076.09;6587805;27;33642;-89
2023/05/08 06:59:59;;;;;;;1.90;1.70;;;;;;;13.42;59.09;101083.03;6567462;27;33462;-89
2023/05/08 07:03:02;;;;;;;1.77;1.48;;;;;;;13.80;57.37;101081.22;6586840;27;34689;-90
2023/05/08 07:06:09;;;;;;;3.00;1.70;;;;;;;14.02;55.82;101084.94;6567679;27;34291;-90
2023/05/08 07:09:12;;;;;;;2.30;1.45;;;;;;;13.69;56.91;101095.19;6587590;27;34274;-90
2023/05/08 07:12:15;;;;;;;2.97;1.90;;;;;;;14.06;56.06;101083.53;6603811;27;34752;-90
2023/05/08 07:15:18;;;;;;;1.45;1.35;;;;;;;13.81;56.71;101079.38;6606607;27;34186;-90
2023/05/08 07:18:28;;;;;;;1.73;1.30;;;;;;;13.99;56.33;101085.31;6571424;27;33540;-89
2023/05/08 07:21:31;;;;;;;1.90;1.45;;;;;;;13.92;55.91;101087.03;6568471;27;34500;-90
2023/05/08 07:24:34;;;;;;;1.55;1.33;;;;;;;13.80;56.29;101075.81;6569333;27;33611;-89
2023/05/08 07:27:37;;;;;;;0.90;0.90;;;;;;;14.37;56.10;101087.16;6606070;27;33747;-90
2023/05/08 07:30:40;;;;;;;1.52;1.20;;;;;;;14.66;54.15;101087.19;6586341;27;33918;-90
2023/05/08 07:33:43;;;;;;;1.60;1.33;;;;;;;14.42;52.86;101079.28;6586259;27;35453;-93
2023/05/08 07:36:46;;;;;;;2.85;1.40;;;;;;;14.81;52.75;101081.75;6586493;27;33771;-93
2023/05/08 07:39:49;;;;;;;1.77;1.35;;;;;;;14.44;53.51;101088.06;6568223;27;34337;-95
2023/05/08 07:42:52;;;;;;;1.85;1.10;;;;;;;14.59;54.12;101086.25;6604667;27;35100;-94
2023/05/08 07:45:55;;;;;;;6.05;1.30;;;;;;;14.72;52.37;101083.72;6585978;27;35117;-89
2023/05/08 07:48:58;;;;;;;1.20;1.10;;;;;;;15.05;51.69;101080.59;6586442;27;33526;-89
2023/05/08 07:52:01;;;;;;;2.40;1.20;;;;;;;15.03;53.22;101090.78;6569231;27;33874;-88
2023/05/08 07:55:04;;;;;;;3.00;1.20;;;;;;;15.16;50.94;101090.13;6569425;27;33630;-92
2023/05/08 07:58:08;;;;;;;1.00;0.95;;;;;;;15.19;50.98;101093.28;6586675;27;34584;-89
2023/05/08 08:01:11;;;;;;;1.45;1.35;;;;;;;15.11;51.62;101076.28;6588270;27;34427;-91
2023/05/08 08:04:14;;;;;;;2.47;1.48;;;;;;;15.42;51.92;101084.16;6587372;27;33624;-89
2023/05/08 08:07:17;;;;;;;1.65;1.50;;;;;;;15.47;50.91;101076.25;6600062;27;35367;-89
2023/05/08 08:10:20;;;;;;;1.33;1.23;;;;;;;15.47;52.42;101081.69;6566307;27;35428;-89
2023/05/08 08:13:23;;;;;;;1.50;1.40;;;;;;;15.62;51.57;101085.22;6560348;27;33498;-89
2023/05/08 08:16:26;;;;;;;1.20;1.00;;;;;;;15.70;50.47;101080.69;6578264;27;34197;-89
2023/05/08 08:19:32;;;;;;;2.17;1.73;;;;;;;15.89;50.49;101071.06;6577681;27;33970;-88
2023/05/08 08:22:36;;;;;;;1.62;1.52;;;;;;;15.81;49.37;101081.00;6560373;27;34269;-89
2023/05/08 08:25:39;;;;;;;1.52;1.20;;;;;;;16.07;49.61;101076.84;6560639;27;33745;-89
2023/05/08 08:28:42;;;;;;;1.45;1.27;;;;;;;16.37;48.46;101074.75;6594843;27;34304;-89
2023/05/08 08:31:45;;;;;;;1.42;1.25;;;;;;;16.31;47.99;101067.41;6576954;27;33920;-89
2023/05/08 08:34:48;;;;;;;7.22;1.40;;;;;;;16.48;47.55;101065.22;6580534;27;34285;-91
2023/05/08 08:37:51;;;;;;;2.75;1.23;;;;;;;16.26;49.11;101068.03;6559007;27;34808;-88
2023/05/08 08:40:54;;;;;;;5.03;1.10;;;;;;;16.60;47.39;101069.06;6541904;27;33834;-90
2023/05/08 08:43:56;;;;;;;3.00;1.30;;;;;;;16.73;46.21;101068.28;6595301;27;34986;-90
2023/05/08 08:47:04;;;;;;;0.88;0.88;;;;;;;16.51;46.69;101067.53;6576992;27;33938;-89
2023/05/08 08:50:08;;;;;;;1.10;1.00;;;;;;;16.46;45.51;101064.56;6578526;27;34645;-89
2023/05/08 08:53:27;;;;;;;1.40;1.15;;;;;;;16.81;46.10;101061.88;6576940;27;33607;-89
2023/05/08 08:56:30;;;;;;;0.90;0.90;;;;;;;17.02;44.37;101056.31;6578867;27;33846;-88
2023/05/08 08:59:33;;;;;;;1.73;0.90;;;;;;;16.94;44.28;101064.66;6595199;27;33789;-88
2023/05/08 09:02:36;;;;;;;1.73;1.05;;;;;;;17.28;43.23;101066.44;6583592;27;33473;-89
2023/05/08 09:05:40;;;;;;;0.88;0.60;;;;;;;17.63;42.83;101058.97;6587255;27;33674;-88
2023/05/08 09:08:43;;;;;;;2.22;0.50;;;;;;;17.44;41.27;101059.78;6569360;27;33878;-88
2023/05/08 09:11:47;;;;;;;1.00;0.60;;;;;;;17.36;41.85;101060.81;6590592;27;33395;-88
2023/05/08 09:14:50;;;;;;;1.30;0.80;;;;;;;17.43;41.50;101050.78;6626968;27;33931;-87
2023/05/08 09:17:53;;;;;;;1.65;0.70;;;;;;;17.74;40.41;101043.06;6610799;26;35508;-86
2023/05/08 09:20:59;;;;;;;2.05;0.80;;;;;;;17.68;41.02;101042.03;6603584;26;35431;-87
2023/05/08 09:24:03;;;;;;;1.80;0.80;;;;;;;17.76;43.10;101038.25;6608437;27;35230;-88
2023/05/08 09:27:20;;;;;;;0.90;0.65;;;;;;;17.80;40.41;101048.53;6586213;27;34051;-87
2023/05/08 09:30:23;;;;;;;0.47;0.47;;;;;;;18.17;40.08;101057.13;6613432;27;33477;-90
2023/05/08 09:33:28;;;;;;;0.65;0.65;;;;;;;17.79;39.60;101041.44;6589754;27;34130;-90
2023/05/08 09:36:30;;;;;;;1.10;0.90;;;;;;;18.05;40.29;101047.94;6591493;27;33479;-89
2023/05/08 09:39:33;;;;;;;0.80;0.80;;;;;;;18.38;40.89;101044.31;6611457;27;33818;-89
2023/05/08 09:42:37;;;;;;;0.62;0.62;;;;;;;18.51;40.48;101045.09;6611855;27;34282;-89
2023/05/08 09:45:41;;;;;;;0.70;0.70;;;;;;;18.41;39.94;101050.19;6594303;27;34090;-89
2023/05/08 09:48:45;;;;;;;0.55;0.55;;;;;;;18.24;39.97;101038.88;6594420;27;34787;-89
2023/05/08 09:51:54;;;;;;;3.08;1.17;;;;;;;18.45;39.96;101039.66;6574555;27;35191;-88
2023/05/08 09:55:06;;;;;;;0.70;0.60;;;;;;;18.34;39.45;101039.28;6612485;27;34188;-89
2023/05/08 09:58:09;;;;;;;1.45;0.70;;;;;;;18.44;40.17;101040.72;6611537;27;33973;-89
2023/05/08 10:01:33;;;;;;;0.75;0.75;;;;;;;18.77;39.46;101033.28;6590001;27;34689;-86
2023/05/08 10:04:36;;;;;;;1.42;0.57;;;;;;;19.14;39.99;101024.53;6608412;27;33938;-86
2023/05/08 10:07:40;;;;;;;0.70;0.70;;;;;;;19.00;38.70;101034.69;6608616;27;33810;-87
2023/05/08 10:10:43;;;;;;;1.27;0.60;;;;;;;19.53;38.36;101031.62;6588999;27;33514;-86
2023/05/08 10:13:46;;;;;;;0.70;0.70;;;;;;;19.38;37.71;101026.47;6608095;27;33344;-86
2023/05/08 10:16:54;;;;;;;1.50;0.75;;;;;;;19.40;37.76;101023.53;6588096;27;33552;-86
2023/05/08 10:20:05;;;;;;;1.15;0.60;;;;;;;19.72;37.96;101013.47;6608785;27;34823;-86
2023/05/08 10:23:13;;;;;;;0.70;0.68;;;;;;;19.75;36.84;101007.56;6609149;27;35516;-85
2023/05/08 10:26:29;;;;;;;0.40;0.40;;;;;;;20.14;37.86;101014.53;6608616;27;33884;-87
2023/05/08 10:29:51;;;;;;;0.60;0.60;;;;;;;20.27;36.65;101004.50;6608259;27;34202;-86
2023/05/08 10:32:58;;;;;;;2.20;0.62;;;;;;;20.79;34.87;101011.28;6611136;27;34644;-86
2023/05/08 10:36:04;;;;;;;0.40;0.40;;;;;;;20.56;34.72;100992.87;6658705;26;34428;-86
2023/05/08 10:39:07;;;;;;;0.60;0.60;;;;;;;20.33;35.32;100998.16;6645566;26;35315;-88
2023/05/08 10:42:14;;;;;;;0.50;0.50;;;;;;;20.69;33.93;100997.34;6645579;26;36610;-90
2023/05/08 10:45:17;;;;;;;1.95;0.75;;;;;;;20.65;34.22;100987.06;6609167;26;33993;-87
2023/05/08 10:48:52;;;;;;;2.67;0.65;;;;;;;21.18;33.01;100992.69;6660869;26;35115;-86
2023/05/08 10:52:06;;;;;;;2.25;0.68;;;;;;;21.59;32.33;100980.06;6635164;26;34690;-86
2023/05/08 10:55:28;;;;;;;0.50;0.50;;;;;;;21.34;31.61;100982.13;6634131;26;34676;-86
2023/05/08 10:58:40;;;;;;;3.03;0.60;;;;;;;21.77;33.50;100984.62;6634960;26;34520;-86
2023/05/08 11:01:46;;;;;;;2.15;0.60;;;;;;;22.42;30.63;100973.50;6634029;26;33504;-86
2023/05/08 11:04:50;;;;;;;0.75;0.50;;;;;;;23.21;32.13;100985.78;6614031;26;34461;-88
2023/05/08 11:07:58;;;;;;;0.98;0.52;;;;;;;23.37;30.88;100981.38;6596795;26;33921;-88
2023/05/08 11:11:09;;;;;;;2.50;0.63;;;;;;;22.88;30.31;100987.34;6624701;26;33593;-88
2023/05/08 11:14:14;;;;;;;2.37;0.60;;;;;;;23.11;30.14;100972.72;6587727;27;33654;-88
2023/05/08 11:17:22;;;;;;;0.73;0.52;;;;;;;23.85;29.90;100967.09;6604670;27;33578;-88
2023/05/08 11:20:36;;;;;;;;;;;;;;;24.15;29.44;100957.62;6606558;27;34021;-88
2023/05/08 11:23:39;;;;;;;0.73;0.52;;;;;;;25.21;29.02;100970.22;6604409;27;34303;-88
2023/05/08 11:26:48;;;;;;;1.05;0.55;;;;;;;25.64;25.94;100963.69;6568650;27;33442;-88
2023/05/08 11:30:25;;;;;;;0.43;0.43;;;;;;;26.26;25.17;100967.72;6606917;27;34832;-91
2023/05/08 11:33:30;;;;;;;0.40;0.40;;;;;;;27.92;23.48;100957.59;6607289;27;33521;-89
2023/05/08 11:36:37;;;;;;;0.40;0.40;;;;;;;28.60;23.82;100957.91;6593951;26;34312;-88
2023/05/08 11:39:40;;;;;;;2.10;0.45;;;;;;;28.51;23.53;100954.09;6644405;26;34006;-87
2023/05/08 11:42:43;;;;;;;0.40;0.20;;;;;;;28.11;23.89;100963.34;6672106;26;34814;-87
2023/05/08 11:45:46;;;;;;;3.58;0.80;;;;;;;27.44;24.22;100951.53;6626058;26;35121;-88
2023/05/08 11:48:58;;;;;;;0.45;0.45;;;;;;;29.88;23.60;100954.25;6632729;26;34196;-88
2023/05/08 12:00:14;;;;;;;0.28;0.28;;;;;;;31.01;20.49;100961.25;6608141;27;20032;-87
2023/05/08 12:03:20;;;;;;;0.43;0.22;;;;;;;30.91;20.44;100957.47;6607656;27;33908;-86
2023/05/08 12:06:23;;;;;;;0.70;0.70;;;;;;;31.06;19.27;100952.81;6607396;27;34290;-87
2023/05/08 12:09:27;;;;;;;0.73;0.30;;;;;;;31.75;19.24;100934.44;6587171;27;33777;-87
2023/05/08 12:12:40;;;;;;;0.35;0.35;;;;;;;33.41;18.94;100931.44;6571667;27;33553;-87
2023/05/08 12:15:44;;;;;;;0.70;0.32;;;;;;;33.11;18.09;100944.16;6585370;27;33898;-86
2023/05/08 12:18:52;;;;;;;0.80;0.32;;;;;;;33.09;18.39;100947.28;6606772;27;34807;-87
2023/05/08 12:21:56;;;;;;;0.35;0.35;;;;;;;34.20;18.46;100943.88;6607474;27;33941;-86
2023/05/08 12:24:58;;;;;;;0.85;0.40;;;;;;;35.04;16.13;100934.31;6606254;27;33815;-86
2023/05/08 12:28:01;;;;;;;0.30;0.28;;;;;;;35.23;16.36;100948.03;6606963;27;35403;-87
2023/05/08 12:31:05;;;;;;;0.30;0.30;;;;;;;34.87;15.95;100949.16;6587906;27;33864;-87
2023/05/08 12:34:08;;;;;;;0.28;0.28;;;;;;;33.48;17.24;100950.53;6587810;27;34405;-87
2023/05/08 12:37:22;;;;;;;0.30;0.30;;;;;;;34.37;17.48;100935.56;6587196;27;33938;-86
2023/05/08 12:40:34;;;;;;;0.37;0.28;;;;;;;33.56;16.61;100941.41;6588441;27;33726;-87
2023/05/08 12:43:37;;;;;;;2.17;0.43;;;;;;;36.18;15.60;100932.94;6587812;27;34017;-87
2023/05/08 12:46:46;;;;;;;0.45;0.20;;;;;;;35.94;15.17;100932.72;6569814;27;33959;-87
2023/05/08 12:49:49;;;;;;;0.82;0.40;;;;;;;33.64;15.07;100947.06;6606149;27;33714;-87
2023/05/08 12:52:52;;;;;;;1.12;0.40;;;;;;;33.58;15.55;100947.47;6607300;27;34633;-87
2023/05/08 12:55:57;;;;;;;0.35;0.35;;;;;;;34.69;15.33;100951.13;6587540;27;34285;-87
2023/05/08 12:59:00;;;;;;;0.20;0.20;;;;;;;36.48;14.04;100938.56;6587380;27;33976;-87
2023/05/08 13:02:11;;;;;;;0.75;0.40;;;;;;;37.67;13.35;100948.31;6587362;27;33871;-87
2023/05/08 13:05:18;;;;;;;0.50;0.50;;;;;;;37.42;13.80;100946.59;6607080;27;34781;-87
2023/05/08 13:08:41;;;;;;;;;;;;;;;37.22;13.68;100946.28;6607948;27;34303;-88
2023/05/08 13:11:44;;;;;;;0.50;0.30;;;;;;;35.48;14.81;100949.13;6606878;27;34858;-88
2023/05/08 13:14:47;;;;;;;1.58;0.60;;;;;;;33.95;15.33;100954.59;6569896;27;34375;-87
2023/05/08 13:17:50;;;;;;;0.57;0.40;;;;;;;35.82;15.09;100941.81;6606665;27;33821;-87
2023/05/08 13:20:55;;;;;;;0.40;0.40;;;;;;;37.45;13.52;100937.47;6588108;27;33606;-87
2023/05/08 13:23:58;;;;;;;1.83;0.52;;;;;;;37.51;13.58;100950.16;6590144;27;33853;-87
2023/05/08 13:27:00;;;;;;;4.57;0.60;;;;;;;36.60;14.12;100944.28;6570015;27;34078;-88
2023/05/08 13:30:05;;;;;;;0.22;0.15;;;;;;;36.24;13.26;100942.84;6571404;27;34408;-87
2023/05/08 13:33:07;;;;;;;1.52;0.40;;;;;;;36.25;11.96;100955.69;6587597;27;34437;-87
2023/05/08 13:36:11;;;;;;;0.32;0.32;;;;;;;34.40;13.95;100953.62;6588698;27;33943;-87
2023/05/08 13:39:14;;;;;;;0.50;0.50;;;;;;;34.28;14.10;100954.25;6570891;27;33824;-87
2023/05/08 13:42:16;;;;;;;0.82;0.40;;;;;;;34.69;14.09;100950.25;6551810;27;34041;-87
2023/05/08 13:45:19;;;;;;;0.45;0.45;;;;;;;35.40;13.97;100959.19;6587410;27;34616;-87
2023/05/08 13:48:23;;;;;;;1.50;0.50;;;;;;;35.25;13.60;100953.28;6587849;27;33874;-87
2023/05/08 13:51:26;;;;;;;0.85;0.32;;;;;;;34.31;14.07;100954.44;6569893;27;34259;-88
2023/05/08 13:54:29;;;;;;;0.30;0.30;;;;;;;33.51;13.49;100947.09;6587280;27;34862;-87
2023/05/08 13:57:32;;;;;;;4.50;0.60;;;;;;;33.23;13.69;100950.03;6588197;27;34467;-87
2023/05/08 14:00:35;;;;;;;3.65;0.73;;;;;;;31.88;14.52;100949.50;6587646;27;34766;-87
2023/05/08 14:03:38;;;;;;;2.92;0.52;;;;;;;31.93;14.50;100943.03;6588453;27;33807;-87
2023/05/08 14:06:42;;;;;;;0.75;0.32;;;;;;;31.98;15.91;100951.31;6587566;27;33905;-87
2023/05/08 14:09:47;;;;;;;2.28;0.40;;;;;;;30.29;15.87;100948.28;6607232;27;33914;-87
2023/05/08 14:12:50;;;;;;;0.50;0.50;;;;;;;29.05;18.18;100947.72;6607565;27;33829;-86
2023/05/08 14:15:53;;;;;;;1.52;0.75;;;;;;;26.81;18.44;100949.72;6588303;27;33541;-87
2023/05/08 14:19:00;;;;;;;0.60;0.50;;;;;;;25.52;19.51;100955.59;6570544;27;33672;-88
2023/05/08 14:22:03;;;;;;;1.67;0.82;;;;;;;24.01;21.05;100962.66;6588100;27;35354;-88
2023/05/08 14:25:07;;;;;;;1.80;0.50;;;;;;;22.84;22.48;100964.19;6607052;27;33495;-87
2023/05/08 14:28:10;;;;;;;3.47;0.70;;;;;;;22.62;23.35;100958.53;6587717;27;33707;-87
2023/05/08 14:31:13;;;;;;;0.55;0.55;;;;;;;22.32;24.05;100967.81;6569785;27;33970;-87
2023/05/08 14:34:16;;;;;;;0.85;0.80;;;;;;;21.65;24.82;100962.69;6607348;27;33898;-87
2023/05/08 14:37:19;;;;;;;0.60;0.60;;;;;;;21.56;23.80;100968.72;6569199;27;33794;-87
2023/05/08 14:40:22;;;;;;;1.33;0.80;;;;;;;20.86;23.46;100972.91;6569269;27;33749;-87
2023/05/08 14:43:26;;;;;;;0.75;0.75;;;;;;;20.73;23.10;100970.34;6569807;27;33521;-87
2023/05/08 14:46:29;;;;;;;2.03;0.70;;;;;;;20.35;23.68;100974.97;6579637;27;196910;-87
2023/05/08 14:49:32;;;;;;;0.60;0.60;;;;;;;20.41;22.16;100967.75;6586957;27;33954;-87
2023/05/08 14:52:40;;;;;;;0.67;0.53;;;;;;;20.46;21.25;100973.38;6586373;27;34581;-87
2023/05/08 14:55:43;;;;;;;0.88;0.80;;;;;;;20.64;21.25;100969.00;6587531;27;34449;-87
2023/05/08 14:58:46;;;;;;;0.60;0.50;;;;;;;20.59;22.11;100969.66;6567453;27;34031;-87
2023/05/08 15:01:49;;;;;;;0.52;0.52;;;;;;;20.47;22.35;100966.00;6587006;27;33842;-87
2023/05/08 15:04:52;;;;;;;2.78;1.00;;;;;;;19.96;22.97;100970.78;6586386;27;33903;-87
2023/05/08 15:07:56;;;;;;;0.57;0.57;;;;;;;20.00;23.23;100961.06;6586405;27;33893;-87
2023/05/08 15:10:59;;;;;;;1.02;0.60;;;;;;;19.63;24.58;100965.59;6586500;27;33417;-87
2023/05/08 15:14:03;;;;;;;0.80;0.70;;;;;;;19.53;24.78;100970.72;6604987;27;33539;-90
2023/05/08 15:17:06;;;;;;;0.50;0.50;;;;;;;19.33;25.00;100971.69;6586879;27;34859;-90
2023/05/08 15:20:09;;;;;;;1.55;0.80;;;;;;;19.29;25.21;100961.44;6586358;27;33851;-91
2023/05/08 15:23:12;;;;;;;1.12;0.70;;;;;;;19.05;25.12;100963.91;6595491;27;34679;-91
2023/05/08 15:26:14;;;;;;;0.60;0.60;;;;;;;18.98;24.70;100963.09;6625608;27;35401;-88
2023/05/08 15:29:17;;;;;;;0.90;0.73;;;;;;;18.73;26.98;100965.75;6596859;27;33969;-87
2023/05/08 15:32:20;;;;;;;0.70;0.70;;;;;;;18.65;27.49;100966.81;6568980;27;34212;-87
2023/05/08 15:35:23;;;;;;;0.77;0.77;;;;;;;18.50;28.39;100967.09;6586880;27;33628;-87
2023/05/08 15:38:26;;;;;;;1.37;0.90;;;;;;;18.34;28.65;100971.12;6586028;27;34658;-88
2023/05/08 15:41:29;;;;;;;1.08;0.80;;;;;;;18.46;28.91;100965.84;6568254;27;34074;-88
2023/05/08 15:44:32;;;;;;;1.10;1.00;;;;;;;18.38;29.99;100976.16;6586019;27;33889;-88
2023/05/08 15:47:55;;;;;;;1.67;1.10;;;;;;;18.17;31.60;100972.66;6589750;27;33564;-88
2023/05/08 15:50:58;;;;;;;1.65;1.00;;;;;;;18.14;32.23;100981.25;6587163;27;33882;-88
2023/05/08 15:54:01;;;;;;;1.27;1.17;;;;;;;17.94;33.01;100972.28;6607647;27;34643;-87
2023/05/08 15:57:04;;;;;;;1.27;1.17;;;;;;;17.86;33.06;100973.31;6571996;27;33963;-87
2023/05/08 16:00:08;;;;;;;0.90;0.90;;;;;;;17.85;33.06;100964.31;6590294;27;33649;-87
2023/05/08 16:03:11;;;;;;;1.80;1.48;;;;;;;17.84;33.24;100967.25;6591557;27;35078;-88
2023/05/08 16:06:15;;;;;;;1.65;1.17;;;;;;;17.84;33.69;100972.69;6611361;27;33880;-88
2023/05/08 16:09:18;;;;;;;2.03;1.10;;;;;;;17.68;34.13;100972.03;6589472;27;33912;-88
